sensor_id;sensor_type;location;lat;lon;timestamp;P1;durP1;ratioP1;P2;durP2;ratioP2
84713;SDS011;74938;42.658;23.248;2023-12-28T00:00:11;16.90;;;7.57;;
84713;SDS011;74938;42.658;23.248;2023-12-28T00:02:36;13.07;;;5.75;;
84713;SDS011;74938;42.658;23.248;2023-12-28T00:05:02;21.67;;;6.63;;
84713;SDS011;74938;42.658;23.248;2023-12-28T00:07:28;13.38;;;6.50;;
84713;SDS011;74938;42.658;23.248;2023-12-28T00:09:54;16.00;;;7.68;;
84713;SDS011;74938;42.658;23.248;2023-12-28T00:12:19;13.00;;;6.25;;
84713;SDS011;74938;42.658;23.248;2023-12-28T00:14:44;16.65;;;6.93;;
84713;SDS011;74938;42.658;23.248;2023-12-28T00:17:10;13.27;;;6.95;;
84713;SDS011;74938;42.658;23.248;2023-12-28T00:19:35;12.10;;;5.72;;
84713;SDS011;74938;42.658;23.248;2023-12-28T00:22:00;12.20;;;5.60;;
84713;SDS011;74938;42.658;23.248;2023-12-28T00:24:26;11.80;;;5.22;;
84713;SDS011;74938;42.658;23.248;2023-12-28T00:26:52;14.35;;;5.88;;
84713;SDS011;74938;42.658;23.248;2023-12-28T00:29:17;33.05;;;12.90;;
84713;SDS011;74938;42.658;23.248;2023-12-28T00:31:43;12.90;;;5.57;;
84713;SDS011;74938;42.658;23.248;2023-12-28T00:34:08;10.10;;;4.82;;
84713;SDS011;74938;42.658;23.248;2023-12-28T00:36:33;13.15;;;5.65;;
84713;SDS011;74938;42.658;23.248;2023-12-28T00:38:59;14.63;;;5.57;;
84713;SDS011;74938;42.658;23.248;2023-12-28T00:41:24;11.63;;;6.13;;
84713;SDS011;74938;42.658;23.248;2023-12-28T00:43:49;11.02;;;6.30;;
84713;SDS011;74938;42.658;23.248;2023-12-28T00:46:15;10.27;;;5.00;;
84713;SDS011;74938;42.658;23.248;2023-12-28T00:48:40;11.38;;;5.20;;
84713;SDS011;74938;42.658;23.248;2023-12-28T00:51:05;10.70;;;5.95;;
84713;SDS011;74938;42.658;23.248;2023-12-28T00:53:31;11.43;;;5.90;;
84713;SDS011;74938;42.658;23.248;2023-12-28T00:55:56;12.10;;;6.05;;
84713;SDS011;74938;42.658;23.248;2023-12-28T00:58:22;10.80;;;5.93;;
84713;SDS011;74938;42.658;23.248;2023-12-28T01:00:47;12.00;;;5.55;;
84713;SDS011;74938;42.658;23.248;2023-12-28T01:03:12;17.35;;;5.85;;
84713;SDS011;74938;42.658;23.248;2023-12-28T01:05:38;13.48;;;6.60;;
84713;SDS011;74938;42.658;23.248;2023-12-28T01:08:03;12.48;;;6.70;;
84713;SDS011;74938;42.658;23.248;2023-12-28T01:10:29;12.60;;;5.93;;
84713;SDS011;74938;42.658;23.248;2023-12-28T01:12:54;13.43;;;6.82;;
84713;SDS011;74938;42.658;23.248;2023-12-28T01:15:20;9.60;;;5.22;;
84713;SDS011;74938;42.658;23.248;2023-12-28T01:17:45;8.85;;;5.65;;
84713;SDS011;74938;42.658;23.248;2023-12-28T01:20:11;12.45;;;4.90;;
84713;SDS011;74938;42.658;23.248;2023-12-28T01:22:36;8.80;;;4.85;;
84713;SDS011;74938;42.658;23.248;2023-12-28T01:25:02;11.45;;;5.45;;
84713;SDS011;74938;42.658;23.248;2023-12-28T01:27:28;9.07;;;3.83;;
84713;SDS011;74938;42.658;23.248;2023-12-28T01:29:53;9.07;;;4.20;;
84713;SDS011;74938;42.658;23.248;2023-12-28T01:32:18;6.57;;;3.95;;
84713;SDS011;74938;42.658;23.248;2023-12-28T01:34:44;9.73;;;4.05;;
84713;SDS011;74938;42.658;23.248;2023-12-28T01:37:10;8.93;;;4.53;;
84713;SDS011;74938;42.658;23.248;2023-12-28T01:39:35;10.40;;;4.35;;
84713;SDS011;74938;42.658;23.248;2023-12-28T01:42:00;11.32;;;5.13;;
84713;SDS011;74938;42.658;23.248;2023-12-28T01:44:26;8.70;;;3.88;;
84713;SDS011;74938;42.658;23.248;2023-12-28T01:46:51;8.68;;;4.10;;
84713;SDS011;74938;42.658;23.248;2023-12-28T01:49:17;7.63;;;3.75;;
84713;SDS011;74938;42.658;23.248;2023-12-28T01:51:43;8.73;;;4.18;;
84713;SDS011;74938;42.658;23.248;2023-12-28T01:54:10;18.58;;;8.18;;
84713;SDS011;74938;42.658;23.248;2023-12-28T01:56:36;13.00;;;3.92;;
84713;SDS011;74938;42.658;23.248;2023-12-28T01:59:02;11.75;;;4.53;;
84713;SDS011;74938;42.658;23.248;2023-12-28T02:01:27;8.27;;;4.45;;
84713;SDS011;74938;42.658;23.248;2023-12-28T02:03:53;6.30;;;3.05;;
84713;SDS011;74938;42.658;23.248;2023-12-28T02:06:19;6.63;;;2.88;;
84713;SDS011;74938;42.658;23.248;2023-12-28T02:08:48;13.20;;;6.68;;
84713;SDS011;74938;42.658;23.248;2023-12-28T02:11:14;15.10;;;7.18;;
84713;SDS011;74938;42.658;23.248;2023-12-28T02:13:39;12.95;;;5.00;;
84713;SDS011;74938;42.658;23.248;2023-12-28T02:16:22;6.35;;;3.42;;
84713;SDS011;74938;42.658;23.248;2023-12-28T02:18:54;7.95;;;3.42;;
84713;SDS011;74938;42.658;23.248;2023-12-28T02:21:22;9.85;;;5.28;;
84713;SDS011;74938;42.658;23.248;2023-12-28T02:23:50;11.15;;;5.50;;
84713;SDS011;74938;42.658;23.248;2023-12-28T02:26:15;6.88;;;3.60;;
84713;SDS011;74938;42.658;23.248;2023-12-28T02:28:41;7.93;;;3.83;;
84713;SDS011;74938;42.658;23.248;2023-12-28T02:31:08;6.22;;;3.05;;
84713;SDS011;74938;42.658;23.248;2023-12-28T02:33:46;6.28;;;3.17;;
84713;SDS011;74938;42.658;23.248;2023-12-28T02:36:16;6.85;;;3.35;;
84713;SDS011;74938;42.658;23.248;2023-12-28T02:38:43;6.07;;;2.75;;
84713;SDS011;74938;42.658;23.248;2023-12-28T02:41:11;5.80;;;3.20;;
84713;SDS011;74938;42.658;23.248;2023-12-28T02:43:37;8.10;;;3.78;;
84713;SDS011;74938;42.658;23.248;2023-12-28T02:46:02;7.05;;;3.28;;
84713;SDS011;74938;42.658;23.248;2023-12-28T02:48:28;8.35;;;3.30;;
84713;SDS011;74938;42.658;23.248;2023-12-28T02:50:53;6.65;;;3.13;;
84713;SDS011;74938;42.658;23.248;2023-12-28T02:53:19;7.53;;;4.00;;
84713;SDS011;74938;42.658;23.248;2023-12-28T02:55:44;6.10;;;3.42;;
84713;SDS011;74938;42.658;23.248;2023-12-28T02:58:09;6.97;;;3.50;;
84713;SDS011;74938;42.658;23.248;2023-12-28T03:00:35;7.68;;;4.38;;
84713;SDS011;74938;42.658;23.248;2023-12-28T03:03:00;7.43;;;4.60;;
84713;SDS011;74938;42.658;23.248;2023-12-28T03:05:25;8.70;;;4.07;;
84713;SDS011;74938;42.658;23.248;2023-12-28T03:07:51;7.75;;;4.68;;
84713;SDS011;74938;42.658;23.248;2023-12-28T03:10:16;7.18;;;3.28;;
84713;SDS011;74938;42.658;23.248;2023-12-28T03:12:42;7.55;;;4.53;;
84713;SDS011;74938;42.658;23.248;2023-12-28T03:15:08;10.38;;;5.40;;
84713;SDS011;74938;42.658;23.248;2023-12-28T03:17:33;8.75;;;5.15;;
84713;SDS011;74938;42.658;23.248;2023-12-28T03:19:59;16.63;;;5.80;;
84713;SDS011;74938;42.658;23.248;2023-12-28T03:22:26;12.55;;;6.10;;
84713;SDS011;74938;42.658;23.248;2023-12-28T03:24:51;15.40;;;7.28;;
84713;SDS011;74938;42.658;23.248;2023-12-28T03:27:16;15.15;;;7.05;;
84713;SDS011;74938;42.658;23.248;2023-12-28T03:29:42;19.58;;;8.35;;
84713;SDS011;74938;42.658;23.248;2023-12-28T03:32:10;19.58;;;9.00;;
84713;SDS011;74938;42.658;23.248;2023-12-28T03:34:36;25.90;;;11.13;;
84713;SDS011;74938;42.658;23.248;2023-12-28T03:37:01;17.00;;;8.38;;
84713;SDS011;74938;42.658;23.248;2023-12-28T03:39:27;19.05;;;8.80;;
84713;SDS011;74938;42.658;23.248;2023-12-28T03:41:52;21.02;;;9.35;;
84713;SDS011;74938;42.658;23.248;2023-12-28T03:44:19;21.85;;;9.57;;
84713;SDS011;74938;42.658;23.248;2023-12-28T03:46:48;21.15;;;10.73;;
84713;SDS011;74938;42.658;23.248;2023-12-28T03:49:17;16.67;;;8.90;;
84713;SDS011;74938;42.658;23.248;2023-12-28T03:51:43;18.80;;;9.05;;
84713;SDS011;74938;42.658;23.248;2023-12-28T03:54:09;19.63;;;8.60;;
84713;SDS011;74938;42.658;23.248;2023-12-28T03:56:34;18.17;;;8.90;;
84713;SDS011;74938;42.658;23.248;2023-12-28T03:59:00;19.83;;;8.75;;
84713;SDS011;74938;42.658;23.248;2023-12-28T04:01:26;18.10;;;10.15;;
84713;SDS011;74938;42.658;23.248;2023-12-28T04:03:51;23.95;;;10.70;;
84713;SDS011;74938;42.658;23.248;2023-12-28T04:06:17;17.52;;;9.65;;
84713;SDS011;74938;42.658;23.248;2023-12-28T04:08:42;16.85;;;8.95;;
84713;SDS011;74938;42.658;23.248;2023-12-28T04:11:08;18.08;;;8.63;;
84713;SDS011;74938;42.658;23.248;2023-12-28T04:13:33;16.50;;;9.05;;
84713;SDS011;74938;42.658;23.248;2023-12-28T04:16:00;17.70;;;9.05;;
84713;SDS011;74938;42.658;23.248;2023-12-28T04:18:26;18.30;;;8.63;;
84713;SDS011;74938;42.658;23.248;2023-12-28T04:20:52;16.20;;;8.07;;
84713;SDS011;74938;42.658;23.248;2023-12-28T04:23:17;14.23;;;7.18;;
84713;SDS011;74938;42.658;23.248;2023-12-28T04:25:42;13.25;;;5.80;;
84713;SDS011;74938;42.658;23.248;2023-12-28T04:28:08;12.50;;;5.28;;
84713;SDS011;74938;42.658;23.248;2023-12-28T04:30:33;10.52;;;5.40;;
84713;SDS011;74938;42.658;23.248;2023-12-28T04:32:59;8.88;;;5.10;;
84713;SDS011;74938;42.658;23.248;2023-12-28T04:35:25;12.63;;;6.70;;
84713;SDS011;74938;42.658;23.248;2023-12-28T04:37:50;15.13;;;5.65;;
84713;SDS011;74938;42.658;23.248;2023-12-28T04:40:16;11.98;;;4.80;;
84713;SDS011;74938;42.658;23.248;2023-12-28T04:42:42;11.90;;;4.80;;
84713;SDS011;74938;42.658;23.248;2023-12-28T04:45:07;8.75;;;4.72;;
84713;SDS011;74938;42.658;23.248;2023-12-28T04:47:33;10.30;;;4.78;;
84713;SDS011;74938;42.658;23.248;2023-12-28T04:49:58;7.78;;;4.22;;
84713;SDS011;74938;42.658;23.248;2023-12-28T04:52:24;9.13;;;4.40;;
84713;SDS011;74938;42.658;23.248;2023-12-28T04:54:49;11.90;;;5.47;;
84713;SDS011;74938;42.658;23.248;2023-12-28T04:57:15;15.18;;;7.18;;
84713;SDS011;74938;42.658;23.248;2023-12-28T04:59:41;16.02;;;6.35;;
84713;SDS011;74938;42.658;23.248;2023-12-28T05:02:07;11.10;;;6.38;;
84713;SDS011;74938;42.658;23.248;2023-12-28T05:04:33;14.75;;;6.32;;
84713;SDS011;74938;42.658;23.248;2023-12-28T05:07:02;12.43;;;5.85;;
84713;SDS011;74938;42.658;23.248;2023-12-28T05:09:27;10.93;;;5.00;;
84713;SDS011;74938;42.658;23.248;2023-12-28T05:11:53;8.63;;;4.45;;
84713;SDS011;74938;42.658;23.248;2023-12-28T05:14:18;8.70;;;4.75;;
84713;SDS011;74938;42.658;23.248;2023-12-28T05:16:43;10.35;;;4.22;;
84713;SDS011;74938;42.658;23.248;2023-12-28T05:19:09;7.78;;;3.88;;
84713;SDS011;74938;42.658;23.248;2023-12-28T05:21:34;7.85;;;3.65;;
84713;SDS011;74938;42.658;23.248;2023-12-28T05:23:59;8.80;;;4.05;;
84713;SDS011;74938;42.658;23.248;2023-12-28T05:26:25;8.52;;;4.30;;
84713;SDS011;74938;42.658;23.248;2023-12-28T05:28:51;10.05;;;4.13;;
84713;SDS011;74938;42.658;23.248;2023-12-28T05:31:16;10.35;;;5.05;;
84713;SDS011;74938;42.658;23.248;2023-12-28T05:33:42;11.35;;;5.40;;
84713;SDS011;74938;42.658;23.248;2023-12-28T05:36:07;12.98;;;5.75;;
84713;SDS011;74938;42.658;23.248;2023-12-28T05:38:32;16.48;;;6.72;;
84713;SDS011;74938;42.658;23.248;2023-12-28T05:40:58;11.35;;;5.93;;
84713;SDS011;74938;42.658;23.248;2023-12-28T05:43:24;11.75;;;5.65;;
84713;SDS011;74938;42.658;23.248;2023-12-28T05:45:49;11.23;;;5.25;;
84713;SDS011;74938;42.658;23.248;2023-12-28T05:48:15;12.88;;;5.65;;
84713;SDS011;74938;42.658;23.248;2023-12-28T05:50:40;11.95;;;4.78;;
84713;SDS011;74938;42.658;23.248;2023-12-28T05:53:05;11.05;;;4.70;;
84713;SDS011;74938;42.658;23.248;2023-12-28T05:55:31;11.65;;;4.40;;
84713;SDS011;74938;42.658;23.248;2023-12-28T05:57:56;10.95;;;4.20;;
84713;SDS011;74938;42.658;23.248;2023-12-28T06:00:22;11.50;;;4.30;;
84713;SDS011;74938;42.658;23.248;2023-12-28T06:02:47;8.13;;;4.20;;
84713;SDS011;74938;42.658;23.248;2023-12-28T06:05:16;8.30;;;3.88;;
84713;SDS011;74938;42.658;23.248;2023-12-28T06:07:42;7.45;;;3.47;;
84713;SDS011;74938;42.658;23.248;2023-12-28T06:10:08;7.80;;;3.53;;
84713;SDS011;74938;42.658;23.248;2023-12-28T06:12:33;6.78;;;3.50;;
84713;SDS011;74938;42.658;23.248;2023-12-28T06:14:59;10.10;;;4.45;;
84713;SDS011;74938;42.658;23.248;2023-12-28T06:17:24;35.42;;;11.43;;
84713;SDS011;74938;42.658;23.248;2023-12-28T06:19:50;17.02;;;6.32;;
84713;SDS011;74938;42.658;23.248;2023-12-28T06:22:15;12.57;;;4.78;;
84713;SDS011;74938;42.658;23.248;2023-12-28T06:24:40;8.15;;;5.18;;
84713;SDS011;74938;42.658;23.248;2023-12-28T06:27:06;13.63;;;6.20;;
84713;SDS011;74938;42.658;23.248;2023-12-28T06:29:31;12.20;;;5.53;;
84713;SDS011;74938;42.658;23.248;2023-12-28T06:31:57;12.15;;;6.15;;
84713;SDS011;74938;42.658;23.248;2023-12-28T06:34:22;15.30;;;6.70;;
84713;SDS011;74938;42.658;23.248;2023-12-28T06:36:47;12.60;;;6.18;;
84713;SDS011;74938;42.658;23.248;2023-12-28T06:39:13;12.70;;;6.47;;
84713;SDS011;74938;42.658;23.248;2023-12-28T06:41:38;12.30;;;5.53;;
84713;SDS011;74938;42.658;23.248;2023-12-28T06:44:04;11.38;;;5.88;;
84713;SDS011;74938;42.658;23.248;2023-12-28T06:46:29;14.93;;;8.10;;
84713;SDS011;74938;42.658;23.248;2023-12-28T06:48:54;16.75;;;7.55;;
84713;SDS011;74938;42.658;23.248;2023-12-28T06:51:20;19.80;;;10.57;;
84713;SDS011;74938;42.658;23.248;2023-12-28T06:53:47;23.10;;;10.45;;
84713;SDS011;74938;42.658;23.248;2023-12-28T06:56:13;15.45;;;8.32;;
84713;SDS011;74938;42.658;23.248;2023-12-28T06:58:39;14.82;;;8.35;;
84713;SDS011;74938;42.658;23.248;2023-12-28T07:01:05;22.13;;;9.75;;
84713;SDS011;74938;42.658;23.248;2023-12-28T07:03:31;19.40;;;9.23;;
84713;SDS011;74938;42.658;23.248;2023-12-28T07:06:00;26.92;;;12.50;;
84713;SDS011;74938;42.658;23.248;2023-12-28T07:08:28;27.33;;;12.25;;
84713;SDS011;74938;42.658;23.248;2023-12-28T07:10:54;21.92;;;10.15;;
84713;SDS011;74938;42.658;23.248;2023-12-28T07:13:22;21.30;;;10.50;;
84713;SDS011;74938;42.658;23.248;2023-12-28T07:15:48;22.45;;;10.73;;
84713;SDS011;74938;42.658;23.248;2023-12-28T07:18:13;22.65;;;10.65;;
84713;SDS011;74938;42.658;23.248;2023-12-28T07:20:39;35.72;;;15.95;;
84713;SDS011;74938;42.658;23.248;2023-12-28T07:23:05;26.98;;;10.57;;
84713;SDS011;74938;42.658;23.248;2023-12-28T07:25:30;23.48;;;11.32;;
84713;SDS011;74938;42.658;23.248;2023-12-28T07:27:55;22.58;;;10.75;;
84713;SDS011;74938;42.658;23.248;2023-12-28T07:30:21;23.42;;;12.38;;
84713;SDS011;74938;42.658;23.248;2023-12-28T07:32:46;23.83;;;11.38;;
84713;SDS011;74938;42.658;23.248;2023-12-28T07:35:11;19.25;;;10.10;;
84713;SDS011;74938;42.658;23.248;2023-12-28T07:37:37;19.75;;;10.07;;
84713;SDS011;74938;42.658;23.248;2023-12-28T07:40:03;19.92;;;10.30;;
84713;SDS011;74938;42.658;23.248;2023-12-28T07:42:28;18.10;;;9.88;;
84713;SDS011;74938;42.658;23.248;2023-12-28T07:44:54;16.60;;;9.43;;
84713;SDS011;74938;42.658;23.248;2023-12-28T07:47:19;20.58;;;10.27;;
84713;SDS011;74938;42.658;23.248;2023-12-28T07:49:45;18.50;;;10.20;;
84713;SDS011;74938;42.658;23.248;2023-12-28T07:52:10;15.50;;;9.50;;
84713;SDS011;74938;42.658;23.248;2023-12-28T07:54:36;16.90;;;8.95;;
84713;SDS011;74938;42.658;23.248;2023-12-28T07:57:01;17.95;;;9.85;;
84713;SDS011;74938;42.658;23.248;2023-12-28T07:59:26;16.88;;;10.27;;
84713;SDS011;74938;42.658;23.248;2023-12-28T08:01:52;18.02;;;10.32;;
84713;SDS011;74938;42.658;23.248;2023-12-28T08:04:17;19.20;;;10.27;;
84713;SDS011;74938;42.658;23.248;2023-12-28T08:06:43;18.50;;;9.57;;
84713;SDS011;74938;42.658;23.248;2023-12-28T08:09:08;21.13;;;10.80;;
84713;SDS011;74938;42.658;23.248;2023-12-28T08:11:35;23.23;;;13.13;;
84713;SDS011;74938;42.658;23.248;2023-12-28T08:14:00;23.13;;;12.65;;
84713;SDS011;74938;42.658;23.248;2023-12-28T08:16:26;28.00;;;15.05;;
84713;SDS011;74938;42.658;23.248;2023-12-28T08:18:52;29.67;;;15.35;;
84713;SDS011;74938;42.658;23.248;2023-12-28T08:21:17;22.10;;;11.85;;
84713;SDS011;74938;42.658;23.248;2023-12-28T08:23:43;26.40;;;13.75;;
84713;SDS011;74938;42.658;23.248;2023-12-28T08:26:09;21.35;;;12.25;;
84713;SDS011;74938;42.658;23.248;2023-12-28T08:28:35;20.85;;;12.35;;
84713;SDS011;74938;42.658;23.248;2023-12-28T08:31:01;22.13;;;12.30;;
84713;SDS011;74938;42.658;23.248;2023-12-28T08:33:26;20.55;;;12.43;;
84713;SDS011;74938;42.658;23.248;2023-12-28T08:35:52;24.98;;;13.13;;
84713;SDS011;74938;42.658;23.248;2023-12-28T08:38:17;26.23;;;12.60;;
84713;SDS011;74938;42.658;23.248;2023-12-28T08:40:42;24.55;;;14.30;;
84713;SDS011;74938;42.658;23.248;2023-12-28T08:43:09;23.67;;;13.50;;
84713;SDS011;74938;42.658;23.248;2023-12-28T08:45:34;34.45;;;18.05;;
84713;SDS011;74938;42.658;23.248;2023-12-28T08:48:00;20.80;;;12.27;;
84713;SDS011;74938;42.658;23.248;2023-12-28T08:50:26;25.45;;;14.70;;
84713;SDS011;74938;42.658;23.248;2023-12-28T08:52:51;28.67;;;15.00;;
84713;SDS011;74938;42.658;23.248;2023-12-28T08:55:16;25.92;;;14.60;;
84713;SDS011;74938;42.658;23.248;2023-12-28T08:57:42;25.17;;;14.52;;
84713;SDS011;74938;42.658;23.248;2023-12-28T09:00:07;27.02;;;14.82;;
84713;SDS011;74938;42.658;23.248;2023-12-28T09:02:34;28.45;;;15.77;;
84713;SDS011;74938;42.658;23.248;2023-12-28T09:04:59;29.25;;;14.57;;
84713;SDS011;74938;42.658;23.248;2023-12-28T09:07:26;29.23;;;14.98;;
84713;SDS011;74938;42.658;23.248;2023-12-28T09:09:51;26.73;;;15.00;;
84713;SDS011;74938;42.658;23.248;2023-12-28T09:12:17;25.65;;;14.73;;
84713;SDS011;74938;42.658;23.248;2023-12-28T09:14:42;27.35;;;16.10;;
84713;SDS011;74938;42.658;23.248;2023-12-28T09:17:08;28.98;;;16.95;;
84713;SDS011;74938;42.658;23.248;2023-12-28T09:19:33;28.90;;;17.23;;
84713;SDS011;74938;42.658;23.248;2023-12-28T09:21:58;31.63;;;17.73;;
84713;SDS011;74938;42.658;23.248;2023-12-28T09:24:24;26.98;;;16.27;;
84713;SDS011;74938;42.658;23.248;2023-12-28T09:26:49;28.58;;;16.45;;
84713;SDS011;74938;42.658;23.248;2023-12-28T09:29:15;33.40;;;18.85;;
84713;SDS011;74938;42.658;23.248;2023-12-28T09:31:40;35.53;;;19.30;;
84713;SDS011;74938;42.658;23.248;2023-12-28T09:34:05;36.75;;;19.17;;
84713;SDS011;74938;42.658;23.248;2023-12-28T09:36:31;64.25;;;33.85;;
84713;SDS011;74938;42.658;23.248;2023-12-28T09:38:56;45.45;;;25.13;;
84713;SDS011;74938;42.658;23.248;2023-12-28T09:41:24;34.80;;;19.98;;
84713;SDS011;74938;42.658;23.248;2023-12-28T09:43:58;30.10;;;17.13;;
84713;SDS011;74938;42.658;23.248;2023-12-28T09:46:32;42.30;;;24.17;;
84713;SDS011;74938;42.658;23.248;2023-12-28T09:48:58;32.95;;;18.60;;
84713;SDS011;74938;42.658;23.248;2023-12-28T09:51:24;28.98;;;16.85;;
84713;SDS011;74938;42.658;23.248;2023-12-28T09:53:50;34.53;;;19.30;;
84713;SDS011;74938;42.658;23.248;2023-12-28T09:56:16;29.67;;;17.30;;
84713;SDS011;74938;42.658;23.248;2023-12-28T09:58:42;33.50;;;18.45;;
84713;SDS011;74938;42.658;23.248;2023-12-28T10:01:09;32.92;;;18.60;;
84713;SDS011;74938;42.658;23.248;2023-12-28T10:03:35;31.67;;;17.23;;
84713;SDS011;74938;42.658;23.248;2023-12-28T10:06:01;30.52;;;17.25;;
84713;SDS011;74938;42.658;23.248;2023-12-28T10:08:26;30.10;;;17.08;;
84713;SDS011;74938;42.658;23.248;2023-12-28T10:10:51;31.95;;;15.50;;
84713;SDS011;74938;42.658;23.248;2023-12-28T10:13:19;31.27;;;16.52;;
84713;SDS011;74938;42.658;23.248;2023-12-28T10:15:47;27.48;;;16.52;;
84713;SDS011;74938;42.658;23.248;2023-12-28T10:18:14;30.95;;;18.58;;
84713;SDS011;74938;42.658;23.248;2023-12-28T10:20:43;34.67;;;18.90;;
84713;SDS011;74938;42.658;23.248;2023-12-28T10:23:14;31.13;;;18.63;;
84713;SDS011;74938;42.658;23.248;2023-12-28T10:25:39;34.78;;;18.50;;
84713;SDS011;74938;42.658;23.248;2023-12-28T10:28:05;29.73;;;18.40;;
84713;SDS011;74938;42.658;23.248;2023-12-28T10:30:31;32.13;;;17.52;;
84713;SDS011;74938;42.658;23.248;2023-12-28T10:32:56;29.17;;;16.75;;
84713;SDS011;74938;42.658;23.248;2023-12-28T10:35:21;32.63;;;17.08;;
84713;SDS011;74938;42.658;23.248;2023-12-28T10:37:47;31.13;;;16.70;;
84713;SDS011;74938;42.658;23.248;2023-12-28T10:40:18;28.30;;;17.05;;
84713;SDS011;74938;42.658;23.248;2023-12-28T10:42:54;28.67;;;16.52;;
84713;SDS011;74938;42.658;23.248;2023-12-28T10:45:23;29.15;;;15.43;;
84713;SDS011;74938;42.658;23.248;2023-12-28T10:47:54;28.52;;;15.55;;
84713;SDS011;74938;42.658;23.248;2023-12-28T10:50:34;26.63;;;15.85;;
84713;SDS011;74938;42.658;23.248;2023-12-28T10:53:11;26.20;;;15.80;;
84713;SDS011;74938;42.658;23.248;2023-12-28T10:55:57;26.33;;;15.50;;
84713;SDS011;74938;42.658;23.248;2023-12-28T10:58:50;28.75;;;17.00;;
84713;SDS011;74938;42.658;23.248;2023-12-28T11:01:35;25.58;;;15.15;;
84713;SDS011;74938;42.658;23.248;2023-12-28T11:06:56;31.58;;;14.68;;
84713;SDS011;74938;42.658;23.248;2023-12-28T11:09:23;25.55;;;15.10;;
84713;SDS011;74938;42.658;23.248;2023-12-28T11:11:51;34.67;;;18.42;;
84713;SDS011;74938;42.658;23.248;2023-12-28T11:14:18;38.10;;;19.30;;
84713;SDS011;74938;42.658;23.248;2023-12-28T11:16:45;41.88;;;20.67;;
84713;SDS011;74938;42.658;23.248;2023-12-28T11:19:11;39.53;;;21.73;;
84713;SDS011;74938;42.658;23.248;2023-12-28T11:21:37;39.40;;;21.52;;
84713;SDS011;74938;42.658;23.248;2023-12-28T11:24:03;40.15;;;22.15;;
84713;SDS011;74938;42.658;23.248;2023-12-28T11:26:30;38.75;;;25.02;;
84713;SDS011;74938;42.658;23.248;2023-12-28T11:29:02;39.10;;;22.73;;
84713;SDS011;74938;42.658;23.248;2023-12-28T11:31:28;38.28;;;21.63;;
84713;SDS011;74938;42.658;23.248;2023-12-28T11:33:58;36.47;;;24.88;;
84713;SDS011;74938;42.658;23.248;2023-12-28T11:36:40;46.63;;;24.20;;
84713;SDS011;74938;42.658;23.248;2023-12-28T11:39:09;39.55;;;22.80;;
84713;SDS011;74938;42.658;23.248;2023-12-28T11:41:35;42.83;;;25.05;;
84713;SDS011;74938;42.658;23.248;2023-12-28T11:44:02;44.42;;;24.33;;
84713;SDS011;74938;42.658;23.248;2023-12-28T11:46:30;46.47;;;26.02;;
84713;SDS011;74938;42.658;23.248;2023-12-28T11:51:30;41.95;;;24.73;;
84713;SDS011;74938;42.658;23.248;2023-12-28T11:53:57;45.00;;;25.23;;
84713;SDS011;74938;42.658;23.248;2023-12-28T11:56:24;41.42;;;23.80;;
84713;SDS011;74938;42.658;23.248;2023-12-28T11:58:50;40.03;;;23.63;;
84713;SDS011;74938;42.658;23.248;2023-12-28T12:01:16;43.53;;;22.15;;
84713;SDS011;74938;42.658;23.248;2023-12-28T12:03:41;45.72;;;24.05;;
84713;SDS011;74938;42.658;23.248;2023-12-28T12:06:08;36.90;;;21.88;;
84713;SDS011;74938;42.658;23.248;2023-12-28T12:08:33;37.72;;;21.55;;
84713;SDS011;74938;42.658;23.248;2023-12-28T12:11:05;36.95;;;21.55;;
84713;SDS011;74938;42.658;23.248;2023-12-28T12:13:31;47.58;;;23.55;;
84713;SDS011;74938;42.658;23.248;2023-12-28T12:15:57;37.08;;;21.20;;
84713;SDS011;74938;42.658;23.248;2023-12-28T12:18:22;46.83;;;23.45;;
84713;SDS011;74938;42.658;23.248;2023-12-28T12:20:48;51.88;;;24.73;;
84713;SDS011;74938;42.658;23.248;2023-12-28T12:23:15;41.90;;;22.38;;
84713;SDS011;74938;42.658;23.248;2023-12-28T12:25:40;45.33;;;23.13;;
84713;SDS011;74938;42.658;23.248;2023-12-28T12:28:06;40.33;;;21.23;;
84713;SDS011;74938;42.658;23.248;2023-12-28T12:30:32;38.08;;;22.27;;
84713;SDS011;74938;42.658;23.248;2023-12-28T12:32:57;40.33;;;22.48;;
84713;SDS011;74938;42.658;23.248;2023-12-28T12:35:24;37.00;;;21.35;;
84713;SDS011;74938;42.658;23.248;2023-12-28T12:37:49;36.28;;;20.40;;
84713;SDS011;74938;42.658;23.248;2023-12-28T12:40:15;37.70;;;20.83;;
84713;SDS011;74938;42.658;23.248;2023-12-28T12:42:50;39.88;;;21.35;;
84713;SDS011;74938;42.658;23.248;2023-12-28T12:45:17;35.67;;;20.85;;
84713;SDS011;74938;42.658;23.248;2023-12-28T12:47:43;34.30;;;19.95;;
84713;SDS011;74938;42.658;23.248;2023-12-28T12:50:09;38.25;;;20.15;;
84713;SDS011;74938;42.658;23.248;2023-12-28T12:52:35;34.80;;;19.58;;
84713;SDS011;74938;42.658;23.248;2023-12-28T12:55:01;40.53;;;20.88;;
84713;SDS011;74938;42.658;23.248;2023-12-28T12:57:27;41.83;;;22.65;;
84713;SDS011;74938;42.658;23.248;2023-12-28T12:59:52;36.42;;;22.30;;
84713;SDS011;74938;42.658;23.248;2023-12-28T13:02:19;38.53;;;20.70;;
84713;SDS011;74938;42.658;23.248;2023-12-28T13:04:48;34.65;;;19.60;;
84713;SDS011;74938;42.658;23.248;2023-12-28T13:09:42;34.83;;;18.33;;
84713;SDS011;74938;42.658;23.248;2023-12-28T13:12:08;31.08;;;17.38;;
84713;SDS011;74938;42.658;23.248;2023-12-28T13:14:33;34.95;;;19.35;;
84713;SDS011;74938;42.658;23.248;2023-12-28T13:16:59;35.25;;;18.75;;
84713;SDS011;74938;42.658;23.248;2023-12-28T13:19:24;27.33;;;17.38;;
84713;SDS011;74938;42.658;23.248;2023-12-28T13:21:50;31.38;;;18.02;;
84713;SDS011;74938;42.658;23.248;2023-12-28T13:24:15;37.40;;;19.88;;
84713;SDS011;74938;42.658;23.248;2023-12-28T13:26:40;33.05;;;18.80;;
84713;SDS011;74938;42.658;23.248;2023-12-28T13:29:06;36.80;;;19.52;;
84713;SDS011;74938;42.658;23.248;2023-12-28T13:31:31;29.55;;;17.80;;
84713;SDS011;74938;42.658;23.248;2023-12-28T13:33:56;29.73;;;16.42;;
84713;SDS011;74938;42.658;23.248;2023-12-28T13:36:22;33.78;;;20.10;;
84713;SDS011;74938;42.658;23.248;2023-12-28T13:38:47;37.97;;;19.95;;
84713;SDS011;74938;42.658;23.248;2023-12-28T13:41:13;31.55;;;16.15;;
84713;SDS011;74938;42.658;23.248;2023-12-28T13:43:38;31.42;;;17.05;;
84713;SDS011;74938;42.658;23.248;2023-12-28T13:46:03;28.75;;;16.08;;
84713;SDS011;74938;42.658;23.248;2023-12-28T13:48:29;26.85;;;13.90;;
84713;SDS011;74938;42.658;23.248;2023-12-28T13:50:55;40.53;;;20.33;;
84713;SDS011;74938;42.658;23.248;2023-12-28T13:53:21;25.40;;;13.18;;
84713;SDS011;74938;42.658;23.248;2023-12-28T13:55:46;25.30;;;13.35;;
84713;SDS011;74938;42.658;23.248;2023-12-28T13:58:11;24.35;;;12.57;;
84713;SDS011;74938;42.658;23.248;2023-12-28T14:00:37;26.90;;;12.38;;
84713;SDS011;74938;42.658;23.248;2023-12-28T14:03:02;24.95;;;11.27;;
84713;SDS011;74938;42.658;23.248;2023-12-28T14:05:28;24.48;;;11.57;;
84713;SDS011;74938;42.658;23.248;2023-12-28T14:07:53;24.98;;;12.15;;
84713;SDS011;74938;42.658;23.248;2023-12-28T14:10:19;22.45;;;12.57;;
84713;SDS011;74938;42.658;23.248;2023-12-28T14:12:44;25.88;;;12.05;;
84713;SDS011;74938;42.658;23.248;2023-12-28T14:15:09;18.50;;;11.45;;
84713;SDS011;74938;42.658;23.248;2023-12-28T14:17:35;23.13;;;10.90;;